createdAt,value
2017-10-09T00:01:13.155Z,97267.34
2017-10-09T00:03:41.715Z,97265.58
2017-10-09T00:06:09.125Z,97264.42
2017-10-09T00:08:36.524Z,97259.45
2017-10-09T00:11:04.087Z,97263.56
2017-10-09T00:13:31.506Z,97260.19
2017-10-09T00:15:58.942Z,97256.29
2017-10-09T00:18:26.775Z,97258.34
2017-10-09T00:20:54.195Z,97261.77
2017-10-09T00:23:21.616Z,97258.39
2017-10-09T00:25:49.538Z,97257.36
2017-10-09T00:28:16.977Z,97251.80
2017-10-09T00:30:44.395Z,97254.67
2017-10-09T00:33:11.835Z,97259.80
2017-10-09T00:35:39.284Z,97257.79
2017-10-09T00:38:06.687Z,97251.58
2017-10-09T00:40:34.385Z,97248.23
2017-10-09T00:43:02.615Z,97244.20
2017-10-09T00:45:30.038Z,97249.14
2017-10-09T00:47:57.511Z,97242.70
2017-10-09T00:50:24.933Z,97242.70
2017-10-09T00:52:52.430Z,97241.33
2017-10-09T00:55:20.254Z,97242.83
2017-10-09T00:57:47.680Z,97238.64
2017-10-09T01:00:15.107Z,97234.09
2017-10-09T01:02:42.548Z,97233.16
2017-10-09T01:05:09.973Z,97237.14
2017-10-09T01:07:37.408Z,97240.31
2017-10-09T01:10:05.186Z,97232.73
2017-10-09T01:12:32.598Z,97230.71
2017-10-09T01:15:00.025Z,97222.83
2017-10-09T01:17:27.458Z,97226.81
2017-10-09T01:19:54.911Z,97227.11
2017-10-09T01:22:22.360Z,97223.12
2017-10-09T01:24:49.814Z,97225.15
2017-10-09T01:27:17.400Z,97225.50
2017-10-09T01:29:44.808Z,97218.52
2017-10-09T01:32:12.269Z,97219.66
2017-10-09T01:34:39.724Z,97208.82
2017-10-09T01:37:07.129Z,97210.28
2017-10-09T01:39:35.004Z,97207.97
2017-10-09T01:42:02.429Z,97211.01
2017-10-09T01:44:29.834Z,97206.80
2017-10-09T01:46:57.279Z,97209.41
2017-10-09T01:49:25.244Z,97205.23
2017-10-09T01:51:52.722Z,97201.96
2017-10-09T01:54:20.279Z,97195.97
2017-10-09T01:56:47.682Z,97197.72
2017-10-09T01:59:15.156Z,97201.66
2017-10-09T02:01:42.602Z,97199.09
2017-10-09T02:04:10.008Z,97192.72
2017-10-09T02:06:37.426Z,97194.16
2017-10-09T02:09:04.867Z,97192.23
2017-10-09T02:11:32.279Z,97200.69
2017-10-09T02:13:59.718Z,97201.59
2017-10-09T02:16:27.161Z,97200.22
2017-10-09T02:18:54.634Z,97197.34
2017-10-09T02:21:22.043Z,97200.81
2017-10-09T02:23:49.608Z,97198.30
2017-10-09T02:26:17.046Z,97202.19
2017-10-09T02:28:44.529Z,97205.35
2017-10-09T02:31:11.968Z,97206.81
2017-10-09T02:33:39.392Z,97212.13
2017-10-09T02:36:06.823Z,97216.32
2017-10-09T02:38:34.278Z,97210.11
2017-10-09T02:41:01.699Z,97213.50
2017-10-09T02:43:29.128Z,97210.11
2017-10-09T02:45:56.588Z,97207.89
2017-10-09T02:48:24.003Z,97213.50
2017-10-09T02:50:51.469Z,97204.20
2017-10-09T02:53:19.116Z,97208.88
2017-10-09T02:55:46.521Z,97209.31
2017-10-09T02:58:13.939Z,97209.83
2017-10-09T03:00:41.471Z,97206.99
2017-10-09T03:03:08.903Z,97215.94
2017-10-09T03:05:36.446Z,97210.55
2017-10-09T03:08:04.029Z,97215.31
2017-10-09T03:10:31.444Z,97214.75
2017-10-09T03:12:58.962Z,97211.63
2017-10-09T03:15:26.895Z,97217.23
2017-10-09T03:17:54.336Z,97218.69
2017-10-09T03:20:21.747Z,97218.69
2017-10-09T03:26:03.740Z,97217.41
2017-10-09T03:28:33.599Z,97218.48
2017-10-09T03:31:01.011Z,97229.36
2017-10-09T03:33:28.430Z,97223.32
2017-10-09T03:35:56.645Z,97222.72
2017-10-09T03:38:24.057Z,97225.46
2017-10-09T03:40:51.486Z,97227.35
2017-10-09T03:43:19.226Z,97224.22
2017-10-09T03:45:46.637Z,97225.16
2017-10-09T03:48:14.051Z,97223.15
2017-10-09T03:50:41.598Z,97222.30
2017-10-09T03:53:09.021Z,97219.48
2017-10-09T03:55:36.438Z,97219.25
2017-10-09T03:58:04.000Z,97215.02
2017-10-09T04:00:31.416Z,97215.27
2017-10-09T04:02:58.819Z,97211.55
2017-10-09T04:05:26.648Z,97215.99
2017-10-09T04:07:54.059Z,97215.66
2017-10-09T04:10:21.466Z,97217.59
2017-10-09T04:12:48.914Z,97215.27
2017-10-09T04:15:16.340Z,97213.56
2017-10-09T04:17:43.788Z,97214.41
2017-10-09T04:20:11.260Z,97219.25
2017-10-09T04:22:38.675Z,97220.11
2017-10-09T04:25:06.112Z,97221.57
2017-10-09T04:27:33.964Z,97218.95
2017-10-09T04:30:01.373Z,97216.86
2017-10-09T04:32:28.784Z,97220.97
2017-10-09T04:34:56.256Z,97227.70
2017-10-09T04:37:23.665Z,97224.66
2017-10-09T04:39:51.333Z,97225.60
2017-10-09T04:42:19.105Z,97228.77
2017-10-09T04:44:46.518Z,97224.53
2017-10-09T04:47:13.929Z,97222.69
2017-10-09T04:49:41.775Z,97224.06
2017-10-09T04:52:09.238Z,97220.47
2017-10-09T04:54:36.759Z,97222.61
2017-10-09T04:57:05.058Z,97220.09
2017-10-09T04:59:32.466Z,97225.48
2017-10-09T05:01:59.886Z,97226.52
2017-10-09T05:04:27.331Z,97232.80
2017-10-09T05:06:54.755Z,97227.55
2017-10-09T05:09:22.180Z,97227.88
2017-10-09T05:11:49.631Z,97232.08
2017-10-09T05:14:17.069Z,97233.45
2017-10-09T05:16:44.479Z,97223.38
2017-10-09T05:19:11.913Z,97220.00
2017-10-09T05:21:39.370Z,97234.09
2017-10-09T05:24:06.778Z,97236.40
2017-10-09T05:26:34.224Z,97232.94
2017-10-09T05:29:01.638Z,97233.58
2017-10-09T05:31:29.057Z,97233.92
2017-10-09T05:33:56.624Z,97233.38
2017-10-09T05:36:24.029Z,97238.03
2017-10-09T05:38:51.458Z,97232.55
2017-10-09T05:41:19.293Z,97231.78
2017-10-09T05:43:46.698Z,97235.25
2017-10-09T05:46:14.107Z,97236.84
2017-10-09T05:48:41.558Z,97236.70
2017-10-09T05:51:08.970Z,97235.08
2017-10-09T05:53:36.394Z,97234.52
2017-10-09T05:56:04.246Z,97237.81
2017-10-09T05:58:31.655Z,97236.53
2017-10-09T06:00:59.211Z,97241.50
2017-10-09T06:03:26.679Z,97240.21
2017-10-09T06:05:54.122Z,97248.31
2017-10-09T06:08:21.528Z,97246.44
2017-10-09T06:10:49.335Z,97249.59
2017-10-09T06:13:16.743Z,97247.66
2017-10-09T06:15:44.152Z,97257.44
2017-10-09T06:18:11.599Z,97251.35
2017-10-09T06:20:39.956Z,97253.15
2017-10-09T06:23:07.372Z,97258.33
2017-10-09T06:25:34.968Z,97260.00
2017-10-09T06:28:02.380Z,97265.48
2017-10-09T06:30:29.898Z,97262.75
2017-10-09T06:32:57.410Z,97264.12
2017-10-09T06:35:24.898Z,97263.99
2017-10-09T06:37:52.314Z,97266.56
2017-10-09T06:40:19.782Z,97263.05
2017-10-09T06:42:47.201Z,97267.38
2017-10-09T06:45:14.675Z,97272.56
2017-10-09T06:47:42.185Z,97274.14
2017-10-09T06:50:09.606Z,97269.38
2017-10-09T06:52:37.015Z,97275.52
2017-10-09T06:55:04.865Z,97270.13
2017-10-09T06:57:32.458Z,97280.56
2017-10-09T06:59:59.979Z,97277.69
2017-10-09T07:02:27.762Z,97276.92
2017-10-09T07:04:55.214Z,97275.77
2017-10-09T07:07:23.360Z,97282.70
2017-10-09T07:09:50.883Z,97280.17
2017-10-09T07:12:18.371Z,97285.09
2017-10-09T07:14:45.845Z,97282.23
2017-10-09T07:17:13.606Z,97279.19
2017-10-09T07:19:41.021Z,97289.64
2017-10-09T07:22:08.434Z,97283.95
2017-10-09T07:24:35.906Z,97286.09
2017-10-09T07:27:03.319Z,97289.34
2017-10-09T07:29:30.739Z,97292.51
2017-10-09T07:31:58.492Z,97294.57
2017-10-09T07:34:25.939Z,97289.77
2017-10-09T07:36:53.352Z,97293.75
2017-10-09T07:39:20.819Z,97293.53
2017-10-09T07:41:48.222Z,97294.62
2017-10-09T07:44:16.250Z,97298.13
2017-10-09T07:46:44.084Z,97297.36
2017-10-09T07:49:11.556Z,97301.38
2017-10-09T07:51:38.963Z,97295.47
2017-10-09T07:54:06.411Z,97296.27
2017-10-09T07:56:33.935Z,97301.13
2017-10-09T07:59:01.345Z,97303.22
2017-10-09T08:01:28.851Z,97304.59
2017-10-09T08:03:56.269Z,97300.83
2017-10-09T08:06:23.680Z,97300.18
2017-10-09T08:08:51.519Z,97305.97
2017-10-09T08:11:18.967Z,97299.80
2017-10-09T08:13:46.374Z,97295.56
2017-10-09T08:16:13.817Z,97300.10
2017-10-09T08:18:41.235Z,97295.64
2017-10-09T08:21:08.659Z,97298.16
2017-10-09T08:23:36.142Z,97294.91
2017-10-09T08:26:03.556Z,97299.41
2017-10-09T08:28:31.055Z,97297.31
2017-10-09T08:30:58.505Z,97296.37
2017-10-09T08:33:25.924Z,97294.91
2017-10-09T08:35:53.438Z,97303.43
2017-10-09T08:38:21.297Z,97299.41
2017-10-09T08:40:48.718Z,97296.80
2017-10-09T08:43:16.227Z,97301.77
2017-10-09T08:45:43.773Z,97297.09
2017-10-09T08:48:11.182Z,97294.91
2017-10-09T08:50:38.593Z,97299.41
2017-10-09T08:53:06.063Z,97296.15
2017-10-09T08:55:33.471Z,97291.27
2017-10-09T08:58:00.992Z,97296.67
2017-10-09T09:00:28.558Z,97294.26
2017-10-09T09:02:55.983Z,97294.26
2017-10-09T09:05:23.405Z,97297.30
2017-10-09T09:07:50.872Z,97293.33
2017-10-09T09:10:18.342Z,97294.83
2017-10-09T09:12:45.748Z,97297.36
2017-10-09T09:15:13.955Z,97296.93
2017-10-09T09:17:41.396Z,97296.63
2017-10-09T09:20:08.827Z,97296.15
2017-10-09T09:22:36.305Z,97296.15
2017-10-09T09:25:03.722Z,97292.89
2017-10-09T09:27:31.155Z,97291.39
2017-10-09T09:29:58.711Z,97296.27
2017-10-09T09:32:26.123Z,97295.42
2017-10-09T09:34:53.534Z,97287.50
2017-10-09T09:37:21.084Z,97285.78
2017-10-09T09:39:48.523Z,97287.70
2017-10-09T09:42:15.936Z,97275.11
2017-10-09T09:44:43.406Z,97278.10
2017-10-09T09:47:10.819Z,97276.48
2017-10-09T09:49:38.236Z,97281.32
2017-10-09T09:52:06.030Z,97267.30
2017-10-09T09:54:33.507Z,97276.61
2017-10-09T09:57:00.922Z,97272.37
2017-10-09T09:59:28.670Z,97274.46
2017-10-09T10:01:56.108Z,97272.15
2017-10-09T10:04:23.516Z,97271.84
2017-10-09T10:06:50.972Z,97278.83
2017-10-09T10:09:18.450Z,97283.34
2017-10-09T10:11:45.952Z,97271.98
2017-10-09T10:14:13.481Z,97279.13
2017-10-09T10:16:40.894Z,97280.08
2017-10-09T10:19:08.306Z,97269.23
2017-10-09T10:21:35.924Z,97267.13
2017-10-09T10:24:03.461Z,97268.25
2017-10-09T10:26:30.867Z,97272.63
2017-10-09T10:28:58.315Z,97268.38
2017-10-09T10:31:25.723Z,97268.38
2017-10-09T10:33:53.135Z,97274.94
2017-10-09T10:36:20.971Z,97274.29
2017-10-09T10:38:48.386Z,97261.39
2017-10-09T10:41:15.798Z,97266.58
2017-10-09T10:43:43.264Z,97275.84
2017-10-09T10:46:10.682Z,97279.11
2017-10-09T10:48:38.108Z,97266.13
2017-10-09T10:51:05.560Z,97268.94
2017-10-09T10:53:32.974Z,97257.23
2017-10-09T10:56:00.386Z,97261.30
2017-10-09T10:58:28.271Z,97254.75
2017-10-09T11:00:55.682Z,97263.49
2017-10-09T11:03:23.101Z,97254.70
2017-10-09T11:05:50.946Z,97261.03
2017-10-09T11:08:18.372Z,97255.77
2017-10-09T11:10:45.784Z,97249.86
2017-10-09T11:13:13.586Z,97256.84
2017-10-09T11:15:41.000Z,97250.20
2017-10-09T11:18:08.413Z,97250.76
2017-10-09T11:20:36.199Z,97256.24
2017-10-09T11:23:03.621Z,97244.00
2017-10-09T11:25:31.039Z,97244.13
2017-10-09T11:27:58.676Z,97244.00
2017-10-09T11:30:26.082Z,97240.83
2017-10-09T11:32:53.500Z,97239.79
2017-10-09T11:35:21.352Z,97238.59
2017-10-09T11:37:48.769Z,97238.16
2017-10-09T11:40:16.232Z,97240.26
2017-10-09T11:42:43.839Z,97235.84
2017-10-09T11:45:11.312Z,97236.72
2017-10-09T11:47:38.718Z,97237.27
2017-10-09T11:50:06.910Z,97239.79
2017-10-09T11:52:34.324Z,97232.60
2017-10-09T11:55:01.759Z,97233.75
2017-10-09T11:57:29.207Z,97234.70
2017-10-09T11:59:56.619Z,97235.55
2017-10-09T12:02:24.096Z,97233.75
2017-10-09T12:04:51.955Z,97229.84
2017-10-09T12:07:19.395Z,97228.55
2017-10-09T12:09:46.802Z,97229.57
2017-10-09T12:12:15.007Z,97228.30
2017-10-09T12:14:42.422Z,97234.20
2017-10-09T12:17:09.834Z,97232.19
2017-10-09T12:19:37.272Z,97225.70
2017-10-09T12:22:04.771Z,97229.65
2017-10-09T12:24:32.208Z,97229.00
2017-10-09T12:26:59.671Z,97222.37
2017-10-09T12:29:27.090Z,97230.67
2017-10-09T12:31:54.504Z,97227.67
2017-10-09T12:34:21.953Z,97232.64
2017-10-09T12:36:49.362Z,97226.43
2017-10-09T12:39:16.771Z,97226.78
2017-10-09T12:41:44.270Z,97229.00
2017-10-09T12:44:11.703Z,97230.59
2017-10-09T12:46:39.125Z,97222.53
2017-10-09T12:49:06.969Z,97223.16
2017-10-09T12:51:34.379Z,97224.03
2017-10-09T12:54:01.790Z,97230.97
2017-10-09T12:56:29.241Z,97226.73
2017-10-09T12:58:56.823Z,97221.72
2017-10-09T13:01:25.206Z,97219.80
2017-10-09T13:03:53.098Z,97226.86
2017-10-09T13:06:20.647Z,97225.36
2017-10-09T13:08:48.085Z,97220.30
2017-10-09T13:11:15.702Z,97221.24
2017-10-09T13:13:43.124Z,97220.30
2017-10-09T13:16:10.548Z,97222.02
2017-10-09T13:18:38.130Z,97218.50
2017-10-09T13:21:05.596Z,97218.72
2017-10-09T13:23:33.049Z,97217.68
2017-10-09T13:26:00.603Z,97216.91
2017-10-09T13:28:28.011Z,97221.38
2017-10-09T13:30:55.507Z,97215.45
2017-10-09T13:33:22.960Z,97215.33
2017-10-09T13:35:50.386Z,97218.63
2017-10-09T13:38:17.851Z,97222.23
2017-10-09T13:40:46.401Z,97220.27
2017-10-09T13:43:13.810Z,97216.80
2017-10-09T13:45:41.257Z,97223.66
2017-10-09T13:48:09.150Z,97221.14
2017-10-09T13:50:36.571Z,97220.32
2017-10-09T13:53:03.978Z,97221.46
2017-10-09T13:55:31.915Z,97219.80
2017-10-09T13:57:59.350Z,97221.15
2017-10-09T14:00:26.750Z,97219.00
2017-10-09T14:02:54.529Z,97216.48
2017-10-09T14:05:21.946Z,97219.87
2017-10-09T14:07:49.453Z,97215.11
2017-10-09T14:10:17.011Z,97215.53
2017-10-09T14:12:44.420Z,97209.45
2017-10-09T14:15:11.832Z,97216.41
2017-10-09T14:17:39.324Z,97215.88
2017-10-09T14:20:06.769Z,97211.22
2017-10-09T14:22:34.181Z,97215.16
2017-10-09T14:25:01.738Z,97205.13
2017-10-09T14:27:29.256Z,97207.58
2017-10-09T14:29:56.783Z,97205.34
2017-10-09T14:39:46.611Z,97190.05
2017-10-09T14:42:14.054Z,97191.99
2017-10-09T14:44:41.462Z,97193.53
2017-10-09T14:47:10.144Z,97193.83
2017-10-09T14:49:37.595Z,97198.92
2017-10-09T14:52:05.702Z,97185.60
2017-10-09T14:54:33.160Z,97186.67
2017-10-09T14:57:00.703Z,97188.08
2017-10-09T14:59:28.152Z,97188.59
2017-10-09T15:01:55.941Z,97194.76
2017-10-09T15:04:23.533Z,97190.75
2017-10-09T15:06:50.996Z,97192.79
2017-10-09T15:09:18.491Z,97192.79
2017-10-09T15:11:46.589Z,97193.78
2017-10-09T15:14:14.033Z,97194.01
2017-10-09T15:16:41.475Z,97191.19
2017-10-09T15:19:08.888Z,97195.13
2017-10-09T15:21:36.313Z,97194.63
2017-10-09T15:24:04.274Z,97195.66
2017-10-09T15:26:32.002Z,97193.20
2017-10-09T15:28:59.466Z,97183.59
2017-10-09T15:31:26.920Z,97186.41
2017-10-09T15:33:54.330Z,97185.63
2017-10-09T15:36:21.752Z,97187.43
2017-10-09T15:38:49.692Z,97186.28
2017-10-09T15:41:17.108Z,97184.38
2017-10-09T15:43:44.538Z,97185.59
2017-10-09T15:46:12.176Z,97187.53
2017-10-09T15:48:39.656Z,97189.97
2017-10-09T15:51:07.115Z,97191.14
2017-10-09T15:53:34.914Z,97196.55
2017-10-09T15:56:02.314Z,97202.61
2017-10-09T15:58:29.722Z,97200.97
2017-10-09T16:00:57.189Z,97202.06
2017-10-09T16:03:24.679Z,97207.20
2017-10-09T16:05:52.083Z,97204.76
2017-10-09T16:08:20.016Z,97208.80
2017-10-09T16:10:47.421Z,97214.20
2017-10-09T16:13:14.866Z,97219.98
2017-10-09T16:15:42.326Z,97216.73
2017-10-09T16:18:09.773Z,97218.30
2017-10-09T16:20:37.184Z,97217.16
2017-10-09T16:23:04.725Z,97222.94
2017-10-09T16:25:32.174Z,97219.55
2017-10-09T16:27:59.616Z,97223.02
2017-10-09T16:30:27.190Z,97226.92
2017-10-09T16:32:54.675Z,97223.61
2017-10-09T16:35:22.088Z,97222.66
2017-10-09T16:37:50.030Z,97221.59
2017-10-09T16:40:17.452Z,97221.59
2017-10-09T16:42:44.950Z,97227.50
2017-10-09T16:45:12.437Z,97225.63
2017-10-09T16:47:39.848Z,97225.92
2017-10-09T16:50:07.276Z,97229.45
2017-10-09T16:52:35.262Z,97231.77
2017-10-09T16:55:02.671Z,97233.39
2017-10-09T16:57:30.093Z,97238.07
2017-10-09T16:59:58.339Z,97233.31
2017-10-09T17:02:25.811Z,97233.83
2017-10-09T17:04:53.302Z,97234.60
2017-10-09T17:07:20.863Z,97235.20
2017-10-09T17:09:48.277Z,97241.93
2017-10-09T17:12:15.692Z,97238.45
2017-10-09T17:14:43.289Z,97238.37
2017-10-09T17:17:10.766Z,97240.04
2017-10-09T17:19:38.302Z,97240.98
2017-10-09T17:22:05.911Z,97242.13
2017-10-09T17:24:33.390Z,97250.96
2017-10-09T17:27:00.786Z,97253.48
2017-10-09T17:29:28.244Z,97260.86
2017-10-09T17:31:55.720Z,97258.67
2017-10-09T17:34:23.152Z,97256.75
2017-10-09T17:36:50.829Z,97252.89
2017-10-09T17:39:18.254Z,97252.89
2017-10-09T17:41:45.809Z,97252.23
2017-10-09T17:44:13.284Z,97256.45
2017-10-09T17:46:40.695Z,97252.11
2017-10-09T17:49:08.281Z,97258.24
2017-10-09T17:51:35.752Z,97257.17
2017-10-09T17:54:03.239Z,97255.28
2017-10-09T17:56:30.650Z,97261.51
2017-10-09T17:58:58.111Z,97254.78
2017-10-09T18:01:25.525Z,97259.23
2017-10-09T18:03:52.942Z,97260.31
2017-10-09T18:06:20.917Z,97257.44
2017-10-09T18:08:48.348Z,97259.23
2017-10-09T18:11:15.843Z,97265.58
2017-10-09T18:13:43.410Z,97265.33
2017-10-09T18:16:10.873Z,97257.87
2017-10-09T18:18:38.383Z,97258.81
2017-10-09T18:21:05.932Z,97259.74
2017-10-09T18:23:33.335Z,97256.58
2017-10-09T18:26:00.774Z,97262.88
2017-10-09T18:28:28.530Z,97263.86
2017-10-09T18:30:55.961Z,97267.84
2017-10-09T18:33:23.466Z,97269.22
2017-10-09T18:35:50.982Z,97269.09
2017-10-09T18:38:18.430Z,97271.23
2017-10-09T18:40:45.919Z,97273.85
2017-10-09T18:43:13.572Z,97270.41
2017-10-09T18:45:41.050Z,97276.72
2017-10-09T18:48:08.482Z,97278.47
2017-10-09T18:50:36.085Z,97280.91
2017-10-09T18:53:03.573Z,97280.19
2017-10-09T18:55:31.083Z,97286.83
2017-10-09T18:57:58.742Z,97285.97
2017-10-09T19:00:26.242Z,97284.89
2017-10-09T19:02:53.729Z,97289.95
2017-10-09T19:05:21.581Z,97286.48
2017-10-09T19:07:49.004Z,97281.56
2017-10-09T19:10:16.495Z,97281.77
2017-10-09T19:12:44.374Z,97289.57
2017-10-09T19:15:11.878Z,97294.84
2017-10-09T19:17:39.422Z,97289.87
2017-10-09T19:20:07.137Z,97286.20
2017-10-09T19:22:34.638Z,97281.86
2017-10-09T19:25:02.275Z,97280.41
2017-10-09T19:27:30.551Z,97278.94
2017-10-09T19:29:58.089Z,97282.76
2017-10-09T19:32:25.604Z,97286.23
2017-10-09T19:34:53.125Z,97275.34
2017-10-09T19:37:20.785Z,97283.66
2017-10-09T19:39:48.557Z,97281.34
2017-10-09T19:42:16.194Z,97281.94
2017-10-09T19:44:43.744Z,97286.26
2017-10-09T19:47:11.241Z,97295.05
2017-10-09T19:49:38.808Z,97291.46
2017-10-09T19:52:06.230Z,97290.16
2017-10-09T19:54:33.726Z,97286.48
2017-10-09T19:57:01.283Z,97291.84
2017-10-09T19:59:28.771Z,97295.73
2017-10-09T20:01:56.221Z,97299.42
2017-10-09T20:04:23.803Z,97301.34
2017-10-09T20:06:51.351Z,97299.12
2017-10-09T20:09:18.760Z,97300.50
2017-10-09T20:11:46.327Z,97311.34
2017-10-09T20:14:13.818Z,97307.78
2017-10-09T20:16:41.237Z,97303.66
2017-10-09T20:19:09.196Z,97302.39
2017-10-09T20:21:36.622Z,97302.81
2017-10-09T20:24:04.960Z,97309.58
2017-10-09T20:26:32.869Z,97314.21
2017-10-09T20:29:00.459Z,97311.98
2017-10-09T20:31:27.973Z,97323.94
2017-10-09T20:33:55.501Z,97325.70
2017-10-09T20:36:22.905Z,97319.31
2017-10-09T20:38:50.573Z,97322.96
2017-10-09T20:41:18.089Z,97319.44
2017-10-09T20:43:45.528Z,97320.39
2017-10-09T20:46:12.941Z,97321.55
2017-10-09T20:48:40.710Z,97319.19
2017-10-09T20:51:08.132Z,97317.80
2017-10-09T20:53:35.634Z,97319.05
2017-10-09T20:56:03.422Z,97320.72
2017-10-09T20:58:30.908Z,97326.63
2017-10-09T21:00:58.350Z,97326.33
2017-10-09T21:03:25.850Z,97327.70
2017-10-09T21:05:53.404Z,97323.47
2017-10-09T21:08:20.900Z,97320.72
2017-10-09T21:10:48.651Z,97321.27
2017-10-09T21:13:16.185Z,97322.64
2017-10-09T21:15:43.616Z,97321.37
2017-10-09T21:18:11.056Z,97325.48
2017-10-09T21:20:38.495Z,97324.53
2017-10-09T21:23:05.901Z,97323.89
2017-10-09T21:25:33.493Z,97330.88
2017-10-09T21:28:00.925Z,97322.52
2017-10-09T21:30:28.352Z,97320.72
2017-10-09T21:32:55.802Z,97319.05
2017-10-09T21:35:23.224Z,97319.70
2017-10-09T21:37:50.659Z,97315.50
2017-10-09T21:40:18.085Z,97318.97
2017-10-09T21:42:45.503Z,97315.41
2017-10-09T21:45:12.984Z,97316.66
2017-10-09T21:47:40.907Z,97320.04
2017-10-09T21:50:08.383Z,97317.95
2017-10-09T21:52:35.811Z,97316.70
2017-10-09T21:55:03.932Z,97316.27
2017-10-09T21:57:31.342Z,97316.14
2017-10-09T21:59:58.754Z,97316.88
2017-10-09T22:02:26.321Z,97318.37
2017-10-09T22:04:53.745Z,97313.75
2017-10-09T22:07:21.230Z,97311.44
2017-10-09T22:09:48.864Z,97309.72
2017-10-09T22:12:16.270Z,97310.58
2017-10-09T22:14:43.818Z,97310.92
2017-10-09T22:17:11.283Z,97306.34
2017-10-09T22:19:38.686Z,97307.20
2017-10-09T22:22:06.106Z,97307.97
2017-10-09T22:24:33.564Z,97306.05
2017-10-09T22:27:00.989Z,97303.61
2017-10-09T22:29:28.413Z,97309.52
2017-10-09T22:31:55.903Z,97303.21
2017-10-09T22:34:23.357Z,97303.52
2017-10-09T22:36:50.822Z,97297.22
2017-10-09T22:39:18.328Z,97296.27
2017-10-09T22:41:45.797Z,97290.79
2017-10-09T22:44:13.225Z,97290.23
2017-10-09T22:46:40.846Z,97285.09
2017-10-09T22:49:08.330Z,97288.14
2017-10-09T22:51:35.805Z,97287.63
2017-10-09T22:54:03.397Z,97283.81
2017-10-09T22:56:30.882Z,97281.59
2017-10-09T22:58:58.368Z,97274.20
2017-10-09T23:01:25.868Z,97277.90
2017-10-09T23:03:53.378Z,97273.61
2017-10-09T23:06:20.858Z,97268.12
2017-10-09T23:08:48.470Z,97269.80
2017-10-09T23:11:15.994Z,97267.05
2017-10-09T23:13:43.455Z,97262.09
2017-10-09T23:16:10.911Z,97268.22
2017-10-09T23:18:38.380Z,97263.81
2017-10-09T23:21:05.847Z,97266.63
2017-10-09T23:23:33.365Z,97259.05
2017-10-09T23:26:00.837Z,97264.19
2017-10-09T23:28:28.326Z,97262.09
2017-10-09T23:30:56.046Z,97262.94
2017-10-09T23:33:23.517Z,97261.06
2017-10-09T23:35:51.041Z,97262.73
2017-10-09T23:38:18.618Z,97267.15
2017-10-09T23:40:46.149Z,97263.03
2017-10-09T23:43:13.630Z,97260.55
2017-10-09T23:45:41.085Z,97263.16
2017-10-09T23:48:08.575Z,97265.78
2017-10-09T23:50:36.069Z,97266.63
2017-10-09T23:53:03.578Z,97271.09
2017-10-09T23:55:31.038Z,97271.22
2017-10-09T23:57:58.500Z,97266.47
